createdAt,value
2017-12-19T00:02:21.048Z,75.11
2017-12-19T00:04:48.521Z,75.25
2017-12-19T00:07:16.023Z,75.14
2017-12-19T00:09:43.497Z,75.00
2017-12-19T00:12:11.024Z,75.07
2017-12-19T00:14:38.511Z,74.47
2017-12-19T00:17:05.967Z,74.09
2017-12-19T00:19:33.455Z,74.40
2017-12-19T00:22:00.982Z,73.89
2017-12-19T00:24:28.440Z,74.09
2017-12-19T00:26:55.914Z,74.19
2017-12-19T00:29:23.371Z,74.34
2017-12-19T00:31:50.828Z,74.14
2017-12-19T00:34:18.305Z,74.17
2017-12-19T00:36:45.786Z,74.53
2017-12-19T00:39:13.272Z,74.29
2017-12-19T00:41:40.755Z,74.47
2017-12-19T00:44:08.211Z,74.96
2017-12-19T00:46:35.688Z,75.37
2017-12-19T00:49:03.227Z,75.41
2017-12-19T00:51:30.699Z,75.23
2017-12-19T00:53:58.169Z,74.56
2017-12-19T00:56:25.655Z,74.34
2017-12-19T00:58:53.121Z,74.58
2017-12-19T01:01:20.605Z,74.77
2017-12-19T01:03:48.067Z,74.58
2017-12-19T01:06:15.545Z,74.58
2017-12-19T01:08:43.052Z,74.15
2017-12-19T01:11:10.527Z,73.78
2017-12-19T01:13:37.996Z,73.78
2017-12-19T01:16:05.498Z,74.50
2017-12-19T01:18:33.022Z,74.22
2017-12-19T01:21:00.491Z,74.16
2017-12-19T01:23:27.977Z,74.91
2017-12-19T01:25:55.451Z,74.38
2017-12-19T01:28:22.904Z,74.70
2017-12-19T01:30:50.371Z,74.59
2017-12-19T01:33:17.825Z,74.10
2017-12-19T01:35:45.323Z,73.86
2017-12-19T01:38:12.800Z,74.23
2017-12-19T01:40:40.282Z,74.11
2017-12-19T01:43:07.774Z,73.62
2017-12-19T01:45:35.293Z,73.81
2017-12-19T01:48:02.824Z,74.02
2017-12-19T01:50:30.327Z,74.48
2017-12-19T01:52:57.794Z,74.16
2017-12-19T01:55:25.269Z,73.70
2017-12-19T01:57:52.745Z,73.65
2017-12-19T02:00:20.222Z,73.95
2017-12-19T02:02:47.687Z,73.69
2017-12-19T02:05:15.185Z,74.09
2017-12-19T02:07:42.664Z,74.08
2017-12-19T02:10:10.124Z,74.18
2017-12-19T02:12:37.584Z,74.43
2017-12-19T02:15:05.049Z,74.38
2017-12-19T02:17:32.516Z,74.33
2017-12-19T02:19:59.987Z,74.25
2017-12-19T02:22:27.451Z,74.45
2017-12-19T02:24:54.942Z,74.36
2017-12-19T02:27:22.426Z,74.08
2017-12-19T02:29:50.317Z,74.18
2017-12-19T02:32:17.821Z,74.04
2017-12-19T02:34:45.303Z,74.04
2017-12-19T02:37:12.785Z,74.56
2017-12-19T02:39:40.284Z,74.50
2017-12-19T02:42:07.747Z,74.82
2017-12-19T02:44:35.204Z,74.18
2017-12-19T02:47:02.689Z,74.09
2017-12-19T02:49:30.315Z,74.37
2017-12-19T02:51:57.920Z,74.02
2017-12-19T02:54:25.378Z,73.99
2017-12-19T02:56:52.836Z,73.96
2017-12-19T02:59:20.366Z,74.00
2017-12-19T03:01:47.843Z,73.67
2017-12-19T03:04:15.306Z,74.38
2017-12-19T03:06:42.775Z,73.94
2017-12-19T03:09:10.245Z,73.77
2017-12-19T03:11:37.740Z,74.60
2017-12-19T03:14:05.260Z,75.00
2017-12-19T03:16:34.249Z,75.26
2017-12-19T03:19:01.753Z,75.51
2017-12-19T03:21:29.219Z,76.08
2017-12-19T03:23:56.687Z,75.50
2017-12-19T03:26:24.224Z,74.77
2017-12-19T03:28:51.686Z,74.30
2017-12-19T03:31:19.164Z,74.49
2017-12-19T03:33:46.623Z,74.18
2017-12-19T03:36:14.083Z,74.50
2017-12-19T03:38:41.562Z,74.53
2017-12-19T03:41:09.047Z,73.82
2017-12-19T03:43:36.508Z,74.49
2017-12-19T03:46:04.016Z,74.28
2017-12-19T03:48:31.465Z,74.07
2017-12-19T03:50:58.937Z,73.86
2017-12-19T03:53:26.427Z,73.95
2017-12-19T03:55:53.887Z,73.36
2017-12-19T03:58:22.003Z,74.70
2017-12-19T04:00:49.479Z,74.66
2017-12-19T04:03:16.950Z,74.71
2017-12-19T04:05:44.424Z,75.15
2017-12-19T04:08:11.931Z,74.84
2017-12-19T04:10:39.491Z,74.67
2017-12-19T04:13:06.954Z,74.79
2017-12-19T04:15:34.448Z,75.10
2017-12-19T04:18:01.912Z,74.66
2017-12-19T04:20:29.381Z,74.86
2017-12-19T04:22:56.848Z,75.00
2017-12-19T04:25:24.312Z,75.27
2017-12-19T04:27:51.795Z,75.32
2017-12-19T04:30:19.305Z,74.44
2017-12-19T04:32:47.090Z,74.61
2017-12-19T04:35:14.617Z,74.63
2017-12-19T04:37:42.091Z,74.77
2017-12-19T04:40:09.571Z,75.04
2017-12-19T04:42:37.047Z,74.73
2017-12-19T04:45:04.528Z,74.77
2017-12-19T04:47:32.068Z,75.05
2017-12-19T04:49:59.570Z,75.20
2017-12-19T04:52:27.039Z,75.46
2017-12-19T04:57:27.204Z,75.96
2017-12-19T04:59:54.671Z,76.45
2017-12-19T05:02:22.142Z,76.39
2017-12-19T05:04:49.620Z,75.37
2017-12-19T05:07:17.112Z,75.64
2017-12-19T05:09:44.587Z,76.28
2017-12-19T05:12:12.056Z,76.62
2017-12-19T05:14:39.511Z,76.73
2017-12-19T05:17:06.999Z,76.60
2017-12-19T05:19:34.482Z,76.64
2017-12-19T05:22:01.960Z,76.37
2017-12-19T05:24:29.959Z,76.61
2017-12-19T05:26:57.435Z,76.99
2017-12-19T05:29:24.899Z,76.74
2017-12-19T05:31:52.369Z,76.20
2017-12-19T05:34:19.820Z,76.88
2017-12-19T05:36:47.291Z,75.92
2017-12-19T05:39:14.742Z,76.01
2017-12-19T05:41:42.215Z,74.92
2017-12-19T05:44:09.706Z,75.28
2017-12-19T05:46:37.177Z,75.25
2017-12-19T05:49:04.904Z,74.80
2017-12-19T05:51:32.419Z,75.08
2017-12-19T05:53:59.884Z,75.51
2017-12-19T05:56:27.415Z,75.64
2017-12-19T05:58:54.893Z,74.89
2017-12-19T06:01:22.502Z,74.54
2017-12-19T06:03:49.995Z,75.22
2017-12-19T06:06:17.521Z,75.50
2017-12-19T06:08:44.981Z,75.07
2017-12-19T06:11:12.469Z,75.10
2017-12-19T06:13:39.947Z,74.63
2017-12-19T06:16:07.458Z,74.97
2017-12-19T06:18:34.941Z,75.22
2017-12-19T06:21:02.421Z,75.48
2017-12-19T06:23:29.950Z,75.11
2017-12-19T06:26:01.076Z,75.41
2017-12-19T06:28:29.100Z,74.15
2017-12-19T06:30:58.167Z,73.66
2017-12-19T06:33:26.117Z,73.67
2017-12-19T06:35:54.153Z,73.78
2017-12-19T06:38:25.716Z,73.97
2017-12-19T06:40:53.212Z,74.33
2017-12-19T06:43:20.687Z,74.48
2017-12-19T06:45:48.252Z,74.63
2017-12-19T06:48:15.805Z,74.74
2017-12-19T06:50:43.275Z,75.04
2017-12-19T06:53:10.739Z,75.40
2017-12-19T06:55:38.207Z,75.64
2017-12-19T06:58:05.713Z,75.09
2017-12-19T07:00:33.474Z,74.20
2017-12-19T07:03:01.014Z,73.96
2017-12-19T07:08:02.235Z,74.35
2017-12-19T07:10:29.708Z,74.19
2017-12-19T07:13:01.426Z,74.15
2017-12-19T07:15:28.912Z,73.96
2017-12-19T07:17:56.385Z,73.64
2017-12-19T07:20:23.871Z,74.04
2017-12-19T07:22:51.351Z,73.86
2017-12-19T07:25:18.815Z,74.11
2017-12-19T07:27:46.426Z,73.13
2017-12-19T07:30:13.980Z,73.36
2017-12-19T07:32:41.447Z,73.69
2017-12-19T07:35:08.919Z,72.92
2017-12-19T07:37:36.404Z,73.75
2017-12-19T07:40:03.855Z,73.22
2017-12-19T07:42:31.331Z,72.79
2017-12-19T07:44:58.825Z,72.05
2017-12-19T07:47:26.354Z,72.20
2017-12-19T07:49:53.812Z,72.52
2017-12-19T07:52:21.291Z,72.01
2017-12-19T07:54:49.106Z,71.51
2017-12-19T07:57:16.600Z,71.89
2017-12-19T07:59:44.125Z,71.41
2017-12-19T08:02:11.713Z,71.18
2017-12-19T08:04:39.193Z,71.64
2017-12-19T08:07:06.694Z,71.05
2017-12-19T08:09:34.175Z,70.93
2017-12-19T08:12:01.661Z,70.99
2017-12-19T08:14:29.297Z,70.68
2017-12-19T08:16:56.841Z,70.67
2017-12-19T08:19:24.292Z,70.36
2017-12-19T08:21:51.942Z,69.21
2017-12-19T08:24:19.435Z,68.03
2017-12-19T08:26:46.982Z,68.17
2017-12-19T08:29:14.540Z,67.84
2017-12-19T08:31:42.091Z,68.04
2017-12-19T08:34:09.589Z,67.86
2017-12-19T08:36:37.118Z,67.87
2017-12-19T08:39:05.543Z,68.03
2017-12-19T08:41:33.031Z,67.50
2017-12-19T08:44:00.539Z,66.91
2017-12-19T08:46:28.340Z,66.47
2017-12-19T08:48:55.799Z,66.36
2017-12-19T08:51:23.269Z,66.65
2017-12-19T08:53:52.286Z,66.41
2017-12-19T08:56:19.909Z,66.11
2017-12-19T08:58:47.583Z,66.43
2017-12-19T09:01:15.119Z,65.82
2017-12-19T09:03:42.602Z,65.48
2017-12-19T09:06:10.131Z,64.69
2017-12-19T09:08:37.611Z,64.95
2017-12-19T09:11:05.072Z,64.55
2017-12-19T09:13:32.971Z,64.56
2017-12-19T09:16:00.433Z,64.68
2017-12-19T09:18:27.992Z,64.46
2017-12-19T09:20:55.470Z,64.25
2017-12-19T09:23:22.993Z,64.19
2017-12-19T09:25:50.644Z,64.02
2017-12-19T09:28:19.106Z,64.01
2017-12-19T09:30:46.856Z,63.69
2017-12-19T09:33:14.326Z,63.74
2017-12-19T09:35:41.797Z,62.95
2017-12-19T09:38:09.272Z,63.15
2017-12-19T09:40:39.899Z,63.11
2017-12-19T09:43:07.409Z,63.08
2017-12-19T09:45:34.911Z,62.35
2017-12-19T09:48:02.402Z,62.27
2017-12-19T09:50:30.210Z,61.32
2017-12-19T09:52:57.925Z,61.42
2017-12-19T09:55:25.538Z,61.92
2017-12-19T09:57:53.071Z,60.13
2017-12-19T10:00:20.703Z,59.47
2017-12-19T10:02:48.401Z,59.16
2017-12-19T10:05:16.917Z,57.60
2017-12-19T10:07:44.657Z,56.16
2017-12-19T10:10:14.070Z,57.42
2017-12-19T10:12:43.199Z,56.20
2017-12-19T10:15:10.877Z,56.36
2017-12-19T10:17:38.481Z,56.61
2017-12-19T10:20:06.139Z,55.45
2017-12-19T10:22:33.844Z,55.04
2017-12-19T10:25:01.704Z,55.33
2017-12-19T10:27:29.370Z,54.74
2017-12-19T10:29:57.852Z,53.80
2017-12-19T10:32:25.682Z,53.22
2017-12-19T10:34:53.636Z,53.77
2017-12-19T10:37:21.227Z,53.00
2017-12-19T10:40:01.812Z,53.31
2017-12-19T10:42:30.685Z,53.69
2017-12-19T10:44:58.190Z,54.42
2017-12-19T10:47:26.708Z,55.17
2017-12-19T10:49:54.542Z,55.40
2017-12-19T10:52:25.743Z,55.70
2017-12-19T10:54:53.713Z,55.33
2017-12-19T10:57:22.624Z,55.47
2017-12-19T11:00:02.982Z,54.85
2017-12-19T11:02:30.707Z,55.76
2017-12-19T11:04:58.374Z,55.64
2017-12-19T11:07:25.847Z,55.19
2017-12-19T11:09:55.529Z,55.23
2017-12-19T11:12:22.999Z,55.50
2017-12-19T11:14:50.517Z,55.09
2017-12-19T11:17:17.996Z,56.01
2017-12-19T11:19:45.472Z,55.52
2017-12-19T11:22:13.000Z,55.85
2017-12-19T11:24:40.509Z,55.42
2017-12-19T11:27:08.031Z,56.08
2017-12-19T11:29:35.610Z,55.38
2017-12-19T11:32:03.209Z,55.96
2017-12-19T11:34:30.806Z,56.54
2017-12-19T11:36:58.619Z,57.31
2017-12-19T11:39:26.535Z,57.34
2017-12-19T11:41:54.079Z,57.37
2017-12-19T11:44:21.950Z,57.27
2017-12-19T11:46:49.412Z,57.48
2017-12-19T11:49:16.909Z,57.26
2017-12-19T11:51:44.416Z,56.74
2017-12-19T11:54:12.001Z,56.37
2017-12-19T11:56:39.524Z,56.60
2017-12-19T11:59:07.028Z,56.37
2017-12-19T12:01:35.413Z,55.74
2017-12-19T12:04:02.917Z,55.76
2017-12-19T12:06:30.400Z,54.89
2017-12-19T12:08:57.884Z,54.52
2017-12-19T12:11:25.928Z,54.59
2017-12-19T12:13:53.482Z,53.84
2017-12-19T12:16:20.944Z,55.09
2017-12-19T12:18:48.416Z,54.77
2017-12-19T12:21:15.900Z,55.27
2017-12-19T12:23:43.373Z,54.25
2017-12-19T12:26:10.822Z,53.62
2017-12-19T12:28:38.299Z,53.23
2017-12-19T12:31:05.759Z,52.07
2017-12-19T12:33:33.268Z,51.59
2017-12-19T12:36:00.779Z,51.94
2017-12-19T12:38:28.256Z,51.65
2017-12-19T12:40:55.750Z,51.79
2017-12-19T12:43:23.199Z,52.02
2017-12-19T12:45:50.708Z,52.75
2017-12-19T12:48:18.189Z,53.06
2017-12-19T12:50:45.825Z,53.82
2017-12-19T12:53:13.321Z,53.17
2017-12-19T12:55:41.016Z,54.21
2017-12-19T12:58:08.575Z,54.14
2017-12-19T13:00:36.078Z,54.29
2017-12-19T13:03:03.584Z,54.46
2017-12-19T13:05:31.051Z,54.63
2017-12-19T13:07:58.562Z,54.47
2017-12-19T13:10:26.027Z,54.70
2017-12-19T13:12:53.506Z,54.96
2017-12-19T13:15:21.038Z,54.99
2017-12-19T13:17:48.523Z,54.38
2017-12-19T13:20:15.992Z,54.87
2017-12-19T13:22:43.451Z,54.62
2017-12-19T13:25:10.918Z,54.84
2017-12-19T13:27:38.369Z,55.37
2017-12-19T13:30:05.964Z,55.03
2017-12-19T13:32:33.419Z,54.43
2017-12-19T13:35:00.889Z,54.62
2017-12-19T13:37:28.413Z,53.99
2017-12-19T13:39:55.865Z,54.38
2017-12-19T13:42:23.333Z,54.13
2017-12-19T13:44:50.780Z,52.85
2017-12-19T13:47:18.240Z,53.42
2017-12-19T13:49:45.717Z,53.85
2017-12-19T13:52:13.201Z,54.03
2017-12-19T13:54:40.654Z,54.26
2017-12-19T13:57:08.124Z,53.76
2017-12-19T13:59:35.604Z,54.75
2017-12-19T14:02:03.052Z,54.81
2017-12-19T14:04:30.617Z,54.65
2017-12-19T14:06:58.080Z,54.51
2017-12-19T14:09:25.526Z,55.20
2017-12-19T14:11:52.995Z,54.86
2017-12-19T14:14:20.463Z,54.11
2017-12-19T14:16:47.944Z,54.36
2017-12-19T14:19:15.418Z,54.33
2017-12-19T14:21:43.273Z,55.29
2017-12-19T14:24:10.753Z,55.40
2017-12-19T14:26:38.219Z,55.53
2017-12-19T14:29:06.415Z,55.55
2017-12-19T14:31:36.968Z,56.38
2017-12-19T14:34:05.609Z,56.40
2017-12-19T14:36:36.692Z,56.91
2017-12-19T14:39:04.416Z,56.85
2017-12-19T14:41:31.901Z,57.13
2017-12-19T14:43:59.364Z,57.43
2017-12-19T14:46:27.740Z,57.37
2017-12-19T14:48:55.376Z,57.88
2017-12-19T14:51:23.179Z,57.96
2017-12-19T14:53:50.675Z,57.46
2017-12-19T14:56:18.199Z,57.97
2017-12-19T14:58:45.677Z,58.18
2017-12-19T15:01:13.166Z,58.49
2017-12-19T15:03:40.645Z,58.86
2017-12-19T15:06:08.109Z,59.13
2017-12-19T15:08:35.604Z,59.50
2017-12-19T15:11:03.160Z,59.89
2017-12-19T15:13:30.657Z,59.96
2017-12-19T15:15:58.124Z,60.41
2017-12-19T15:18:26.094Z,60.59
2017-12-19T15:20:53.739Z,59.82
2017-12-19T15:23:21.414Z,60.54
2017-12-19T15:25:56.142Z,61.00
2017-12-19T15:28:25.684Z,61.63
2017-12-19T15:30:58.990Z,61.15
2017-12-19T15:33:26.880Z,61.42
2017-12-19T15:35:54.544Z,61.60
2017-12-19T15:38:22.069Z,62.22
2017-12-19T15:40:49.533Z,62.24
2017-12-19T15:43:17.010Z,62.07
2017-12-19T15:45:44.564Z,62.49
2017-12-19T15:48:12.040Z,62.21
2017-12-19T15:50:39.523Z,62.46
2017-12-19T15:53:07.017Z,62.67
2017-12-19T15:55:34.472Z,62.77
2017-12-19T15:58:02.008Z,62.88
2017-12-19T16:00:29.483Z,62.26
2017-12-19T16:02:56.947Z,62.26
2017-12-19T16:05:24.425Z,62.69
2017-12-19T16:07:52.058Z,62.56
2017-12-19T16:10:19.560Z,63.13
2017-12-19T16:12:47.061Z,62.67
2017-12-19T16:15:14.571Z,62.14
2017-12-19T16:17:42.073Z,61.81
2017-12-19T16:20:09.532Z,61.99
2017-12-19T16:22:37.030Z,62.46
2017-12-19T16:25:04.579Z,63.10
2017-12-19T16:27:32.061Z,62.97
2017-12-19T16:29:59.537Z,63.38
2017-12-19T16:32:27.016Z,62.94
2017-12-19T16:34:54.485Z,63.04
2017-12-19T16:37:21.997Z,62.98
2017-12-19T16:39:49.521Z,62.40
2017-12-19T16:42:17.013Z,62.13
2017-12-19T16:44:44.514Z,61.25
2017-12-19T16:47:12.006Z,61.20
2017-12-19T16:49:39.466Z,60.41
2017-12-19T16:52:06.966Z,59.96
2017-12-19T16:54:34.453Z,59.36
2017-12-19T16:57:01.963Z,59.19
2017-12-19T16:59:29.483Z,59.26
2017-12-19T17:01:57.355Z,59.25
2017-12-19T17:04:25.377Z,59.17
2017-12-19T17:06:54.484Z,58.65
2017-12-19T17:09:22.613Z,58.99
2017-12-19T17:11:50.177Z,59.70
2017-12-19T17:14:17.685Z,60.38
2017-12-19T17:16:45.161Z,60.22
2017-12-19T17:19:13.535Z,60.53
2017-12-19T17:21:41.098Z,60.59
2017-12-19T17:24:08.575Z,60.51
2017-12-19T17:26:36.108Z,60.77
2017-12-19T17:29:04.090Z,60.26
2017-12-19T17:31:31.572Z,60.49
2017-12-19T17:33:59.071Z,60.31
2017-12-19T17:36:26.559Z,60.50
2017-12-19T17:38:54.262Z,59.42
2017-12-19T17:41:21.937Z,59.85
2017-12-19T17:43:49.420Z,60.06
2017-12-19T17:46:16.928Z,59.79
2017-12-19T17:48:45.251Z,59.85
2017-12-19T17:51:15.065Z,59.81
2017-12-19T17:53:42.935Z,59.75
2017-12-19T17:56:10.492Z,59.44
2017-12-19T17:58:37.972Z,60.19
2017-12-19T18:01:05.469Z,60.25
2017-12-19T18:03:32.947Z,60.39
2017-12-19T18:06:00.435Z,60.29
2017-12-19T18:08:28.687Z,60.04
2017-12-19T18:10:56.265Z,59.92
2017-12-19T18:13:24.913Z,59.57
2017-12-19T18:15:52.473Z,59.21
2017-12-19T18:18:19.989Z,59.35
2017-12-19T18:20:47.504Z,59.17
2017-12-19T18:23:14.997Z,59.30
2017-12-19T18:25:42.475Z,58.84
2017-12-19T18:28:09.991Z,58.63
2017-12-19T18:30:37.480Z,58.73
2017-12-19T18:33:04.985Z,59.23
2017-12-19T18:35:32.514Z,59.20
2017-12-19T18:38:00.111Z,59.24
2017-12-19T18:40:27.746Z,59.47
2017-12-19T18:42:56.064Z,59.42
2017-12-19T18:45:23.600Z,59.44
2017-12-19T18:47:51.251Z,59.39
2017-12-19T18:50:18.864Z,59.61
2017-12-19T18:52:46.417Z,59.79
2017-12-19T18:55:14.066Z,59.37
2017-12-19T18:57:42.353Z,58.97
2017-12-19T19:00:09.977Z,59.30
2017-12-19T19:02:37.506Z,58.97
2017-12-19T19:05:05.020Z,59.22
2017-12-19T19:07:32.526Z,59.35
2017-12-19T19:10:00.144Z,59.89
2017-12-19T19:12:27.689Z,59.81
2017-12-19T19:14:55.335Z,60.26
2017-12-19T19:17:22.892Z,60.61
2017-12-19T19:19:50.489Z,60.92
2017-12-19T19:22:18.147Z,61.51
2017-12-19T19:24:45.998Z,62.18
2017-12-19T19:27:13.584Z,62.33
2017-12-19T19:29:41.412Z,62.52
2017-12-19T19:32:09.017Z,63.19
2017-12-19T19:34:36.640Z,64.00
2017-12-19T19:37:04.645Z,64.57
2017-12-19T19:39:33.855Z,65.65
2017-12-19T19:42:01.627Z,66.82
2017-12-19T19:44:29.600Z,67.72
2017-12-19T19:46:57.169Z,68.56
2017-12-19T19:49:24.816Z,68.70
2017-12-19T19:51:53.222Z,68.92
2017-12-19T19:54:21.424Z,68.90
2017-12-19T19:56:49.161Z,69.57
2017-12-19T19:59:16.746Z,70.50
2017-12-19T20:01:44.412Z,71.38
2017-12-19T20:04:12.032Z,71.99
2017-12-19T20:06:42.825Z,72.35
2017-12-19T20:09:10.806Z,72.77
2017-12-19T20:11:38.529Z,74.07
2017-12-19T20:14:06.319Z,74.15
2017-12-19T20:16:33.848Z,75.07
2017-12-19T20:19:01.382Z,75.49
2017-12-19T20:21:28.967Z,76.06
2017-12-19T20:23:56.565Z,76.46
2017-12-19T20:26:24.219Z,76.34
2017-12-19T20:28:51.803Z,76.52
2017-12-19T20:31:19.382Z,76.51
2017-12-19T20:33:46.936Z,76.44
2017-12-19T20:36:14.652Z,76.49
2017-12-19T20:38:42.236Z,76.85
2017-12-19T20:41:11.166Z,76.58
2017-12-19T20:43:39.352Z,76.35
2017-12-19T20:46:07.016Z,76.67
2017-12-19T20:48:34.832Z,76.64
2017-12-19T20:51:02.490Z,76.87
2017-12-19T20:53:30.085Z,77.37
2017-12-19T20:55:57.813Z,77.79
2017-12-19T20:58:25.516Z,77.88
2017-12-19T21:00:53.283Z,77.57
2017-12-19T21:03:21.026Z,77.20
2017-12-19T21:05:48.637Z,76.92
2017-12-19T21:08:16.356Z,76.88
2017-12-19T21:10:43.882Z,76.60
2017-12-19T21:13:11.820Z,76.81
2017-12-19T21:15:39.332Z,76.88
2017-12-19T21:18:06.932Z,76.86
2017-12-19T21:20:34.504Z,77.06
2017-12-19T21:23:02.058Z,76.92
2017-12-19T21:25:29.669Z,77.28
2017-12-19T21:27:57.144Z,76.92
2017-12-19T21:30:24.686Z,76.79
2017-12-19T21:32:52.306Z,77.45
2017-12-19T21:35:19.874Z,77.58
2017-12-19T21:37:47.381Z,77.82
2017-12-19T21:40:14.916Z,77.90
2017-12-19T21:42:42.504Z,77.70
2017-12-19T21:45:10.000Z,77.45
2017-12-19T21:47:37.526Z,77.88
2017-12-19T21:50:05.095Z,77.20
2017-12-19T21:52:32.633Z,77.24
2017-12-19T21:55:00.175Z,77.58
2017-12-19T21:57:28.245Z,77.33
2017-12-19T21:59:55.736Z,76.73
2017-12-19T22:02:23.318Z,77.07
2017-12-19T22:04:50.859Z,76.94
2017-12-19T22:07:18.532Z,77.06
2017-12-19T22:09:46.024Z,76.83
2017-12-19T22:12:13.577Z,76.87
2017-12-19T22:14:41.127Z,76.69
2017-12-19T22:17:08.672Z,76.46
2017-12-19T22:19:36.428Z,76.27
2017-12-19T22:22:04.031Z,76.49
2017-12-19T22:24:31.576Z,76.30
2017-12-19T22:26:59.085Z,76.10
2017-12-19T22:29:26.580Z,76.12
2017-12-19T22:31:54.079Z,76.27
2017-12-19T22:34:22.171Z,75.99
2017-12-19T22:36:49.654Z,76.20
2017-12-19T22:39:17.160Z,76.19
2017-12-19T22:41:44.636Z,76.56
2017-12-19T22:44:12.113Z,76.20
2017-12-19T22:46:39.635Z,76.71
2017-12-19T22:49:07.108Z,76.98
2017-12-19T22:51:35.666Z,76.44
2017-12-19T22:54:03.216Z,76.38
2017-12-19T22:56:30.712Z,76.30
2017-12-19T22:58:58.193Z,76.43
2017-12-19T23:01:25.655Z,76.64
2017-12-19T23:03:53.132Z,76.64
2017-12-19T23:08:54.244Z,76.12
2017-12-19T23:11:21.788Z,76.02
2017-12-19T23:13:49.334Z,76.19
2017-12-19T23:16:16.806Z,76.58
2017-12-19T23:18:44.399Z,76.50
2017-12-19T23:21:12.000Z,76.21
2017-12-19T23:23:39.509Z,76.13
2017-12-19T23:26:07.034Z,75.94
2017-12-19T23:28:34.524Z,76.35
2017-12-19T23:31:02.008Z,76.17
2017-12-19T23:33:29.495Z,76.15
2017-12-19T23:35:57.016Z,76.06
2017-12-19T23:38:24.531Z,76.03
2017-12-19T23:40:52.212Z,75.91
2017-12-19T23:43:19.883Z,76.21
2017-12-19T23:45:47.482Z,76.07
2017-12-19T23:48:14.950Z,76.08
2017-12-19T23:50:42.457Z,76.14
2017-12-19T23:53:09.940Z,76.58
2017-12-19T23:55:37.428Z,76.04
2017-12-19T23:58:04.923Z,75.79
